sensor_id;sensor_type;location;lat;lon;timestamp;temperature;humidity
78902;DHT22;70441;44.758;37.686;2024-03-17T00:01:00;6.94;79.85
78902;DHT22;70441;44.758;37.686;2024-03-17T00:02:01;6.97;79.74
78902;DHT22;70441;44.758;37.686;2024-03-17T00:03:03;6.98;79.73
78902;DHT22;70441;44.758;37.686;2024-03-17T00:04:04;6.95;79.56
78902;DHT22;70441;44.758;37.686;2024-03-17T00:05:06;6.97;79.70
78902;DHT22;70441;44.758;37.686;2024-03-17T00:06:08;6.95;79.64
78902;DHT22;70441;44.758;37.686;2024-03-17T00:07:10;6.98;79.73
78902;DHT22;70441;44.758;37.686;2024-03-17T00:08:11;6.99;79.58
78902;DHT22;70441;44.758;37.686;2024-03-17T00:09:13;6.97;79.74
78902;DHT22;70441;44.758;37.686;2024-03-17T00:10:14;7.01;79.68
78902;DHT22;70441;44.758;37.686;2024-03-17T00:11:16;7.01;79.48
78902;DHT22;70441;44.758;37.686;2024-03-17T00:12:17;6.98;79.49
78902;DHT22;70441;44.758;37.686;2024-03-17T00:13:19;6.99;79.66
78902;DHT22;70441;44.758;37.686;2024-03-17T00:14:20;6.97;79.51
78902;DHT22;70441;44.758;37.686;2024-03-17T00:15:23;6.98;79.65
78902;DHT22;70441;44.758;37.686;2024-03-17T00:16:24;6.97;79.60
78902;DHT22;70441;44.758;37.686;2024-03-17T00:17:25;6.97;79.55
78902;DHT22;70441;44.758;37.686;2024-03-17T00:18:27;6.98;79.71
78902;DHT22;70441;44.758;37.686;2024-03-17T00:19:29;6.98;79.59
78902;DHT22;70441;44.758;37.686;2024-03-17T00:20:30;6.98;79.64
78902;DHT22;70441;44.758;37.686;2024-03-17T00:21:33;6.99;79.55
78902;DHT22;70441;44.758;37.686;2024-03-17T00:22:37;6.95;79.61
78902;DHT22;70441;44.758;37.686;2024-03-17T00:23:40;6.95;79.56
78902;DHT22;70441;44.758;37.686;2024-03-17T00:24:43;6.95;79.64
78902;DHT22;70441;44.758;37.686;2024-03-17T00:25:44;6.95;79.64
78902;DHT22;70441;44.758;37.686;2024-03-17T00:26:47;6.98;79.71
78902;DHT22;70441;44.758;37.686;2024-03-17T00:27:48;6.95;79.58
78902;DHT22;70441;44.758;37.686;2024-03-17T00:28:51;6.98;79.57
78902;DHT22;70441;44.758;37.686;2024-03-17T00:29:52;6.99;79.61
78902;DHT22;70441;44.758;37.686;2024-03-17T00:30:54;6.99;79.53
78902;DHT22;70441;44.758;37.686;2024-03-17T00:31:55;6.99;79.43
78902;DHT22;70441;44.758;37.686;2024-03-17T00:32:59;6.98;79.50
78902;DHT22;70441;44.758;37.686;2024-03-17T00:34:00;6.98;79.58
78902;DHT22;70441;44.758;37.686;2024-03-17T00:35:01;7.01;79.59
78902;DHT22;70441;44.758;37.686;2024-03-17T00:36:03;7.01;79.45
78902;DHT22;70441;44.758;37.686;2024-03-17T00:37:04;7.01;79.42
78902;DHT22;70441;44.758;37.686;2024-03-17T00:38:06;7.02;79.45
78902;DHT22;70441;44.758;37.686;2024-03-17T00:39:11;7.02;79.45
78902;DHT22;70441;44.758;37.686;2024-03-17T00:40:17;7.01;79.31
78902;DHT22;70441;44.758;37.686;2024-03-17T00:41:19;7.02;79.38
78902;DHT22;70441;44.758;37.686;2024-03-17T00:42:20;7.01;79.44
78902;DHT22;70441;44.758;37.686;2024-03-17T00:43:22;7.04;79.42
78902;DHT22;70441;44.758;37.686;2024-03-17T00:44:23;7.04;79.39
78902;DHT22;70441;44.758;37.686;2024-03-17T00:45:24;7.05;79.34
78902;DHT22;70441;44.758;37.686;2024-03-17T00:46:26;7.08;79.41
78902;DHT22;70441;44.758;37.686;2024-03-17T00:47:27;7.09;79.45
78902;DHT22;70441;44.758;37.686;2024-03-17T00:48:29;7.09;79.37
78902;DHT22;70441;44.758;37.686;2024-03-17T00:49:30;7.12;79.31
78902;DHT22;70441;44.758;37.686;2024-03-17T00:50:32;7.12;79.22
78902;DHT22;70441;44.758;37.686;2024-03-17T00:51:33;7.12;79.19
78902;DHT22;70441;44.758;37.686;2024-03-17T00:52:35;7.14;79.12
78902;DHT22;70441;44.758;37.686;2024-03-17T00:53:37;7.11;79.13
78902;DHT22;70441;44.758;37.686;2024-03-17T00:54:38;7.15;79.04
78902;DHT22;70441;44.758;37.686;2024-03-17T00:55:39;7.12;78.96
78902;DHT22;70441;44.758;37.686;2024-03-17T00:56:41;7.14;79.14
78902;DHT22;70441;44.758;37.686;2024-03-17T00:57:42;7.15;79.15
78902;DHT22;70441;44.758;37.686;2024-03-17T00:58:44;7.15;79.17
78902;DHT22;70441;44.758;37.686;2024-03-17T00:59:49;7.15;79.13
78902;DHT22;70441;44.758;37.686;2024-03-17T01:00:52;7.16;79.11
78902;DHT22;70441;44.758;37.686;2024-03-17T01:01:53;7.18;79.04
78902;DHT22;70441;44.758;37.686;2024-03-17T01:02:54;7.16;78.98
78902;DHT22;70441;44.758;37.686;2024-03-17T01:03:57;7.15;78.93
78902;DHT22;70441;44.758;37.686;2024-03-17T01:04:58;7.15;79.01
78902;DHT22;70441;44.758;37.686;2024-03-17T01:05:59;7.09;78.93
78902;DHT22;70441;44.758;37.686;2024-03-17T01:07:04;7.08;79.09
78902;DHT22;70441;44.758;37.686;2024-03-17T01:08:05;7.09;79.15
78902;DHT22;70441;44.758;37.686;2024-03-17T01:40:18;6.64;80.41
78902;DHT22;70441;44.758;37.686;2024-03-17T01:41:20;6.64;80.56
78902;DHT22;70441;44.758;37.686;2024-03-17T01:42:22;6.63;80.73
78902;DHT22;70441;44.758;37.686;2024-03-17T01:43:23;6.62;80.79
78902;DHT22;70441;44.758;37.686;2024-03-17T01:44:27;6.63;80.78
78902;DHT22;70441;44.758;37.686;2024-03-17T01:45:30;6.64;80.78
78902;DHT22;70441;44.758;37.686;2024-03-17T01:46:33;6.66;80.74
78902;DHT22;70441;44.758;37.686;2024-03-17T01:47:34;6.67;80.60
78902;DHT22;70441;44.758;37.686;2024-03-17T01:48:36;6.67;80.61
78902;DHT22;70441;44.758;37.686;2024-03-17T01:49:37;6.70;80.57
78902;DHT22;70441;44.758;37.686;2024-03-17T01:50:39;6.72;80.52
78902;DHT22;70441;44.758;37.686;2024-03-17T01:51:41;6.72;80.52
78902;DHT22;70441;44.758;37.686;2024-03-17T01:52:42;6.74;80.43
78902;DHT22;70441;44.758;37.686;2024-03-17T01:53:44;6.74;80.45
78902;DHT22;70441;44.758;37.686;2024-03-17T01:54:45;6.76;80.39
78902;DHT22;70441;44.758;37.686;2024-03-17T01:55:47;6.79;80.27
78902;DHT22;70441;44.758;37.686;2024-03-17T01:56:49;6.74;80.19
78902;DHT22;70441;44.758;37.686;2024-03-17T01:57:51;6.79;80.24
78902;DHT22;70441;44.758;37.686;2024-03-17T01:58:53;6.80;80.36
78902;DHT22;70441;44.758;37.686;2024-03-17T01:59:56;6.80;80.29
78902;DHT22;70441;44.758;37.686;2024-03-17T02:00:57;6.80;80.18
78902;DHT22;70441;44.758;37.686;2024-03-17T02:02:00;6.81;80.19
78902;DHT22;70441;44.758;37.686;2024-03-17T02:03:03;6.81;80.15
78902;DHT22;70441;44.758;37.686;2024-03-17T02:04:05;6.81;80.02
78902;DHT22;70441;44.758;37.686;2024-03-17T02:05:07;6.81;80.05
78902;DHT22;70441;44.758;37.686;2024-03-17T02:06:08;6.80;80.18
78902;DHT22;70441;44.758;37.686;2024-03-17T02:07:13;6.81;80.03
78902;DHT22;70441;44.758;37.686;2024-03-17T02:08:16;6.81;79.99
78902;DHT22;70441;44.758;37.686;2024-03-17T02:09:17;6.77;80.01
78902;DHT22;70441;44.758;37.686;2024-03-17T02:10:19;6.77;80.06
78902;DHT22;70441;44.758;37.686;2024-03-17T02:11:30;6.76;79.93
78902;DHT22;70441;44.758;37.686;2024-03-17T02:12:32;6.74;80.04
78902;DHT22;70441;44.758;37.686;2024-03-17T02:13:34;6.70;80.02
78902;DHT22;70441;44.758;37.686;2024-03-17T02:14:35;6.67;80.22
78902;DHT22;70441;44.758;37.686;2024-03-17T02:15:37;6.66;80.17
78902;DHT22;70441;44.758;37.686;2024-03-17T02:16:39;6.60;80.18
78902;DHT22;70441;44.758;37.686;2024-03-17T02:17:40;6.59;80.23
78902;DHT22;70441;44.758;37.686;2024-03-17T02:18:41;6.56;80.39
78902;DHT22;70441;44.758;37.686;2024-03-17T02:19:43;6.54;80.40
78902;DHT22;70441;44.758;37.686;2024-03-17T02:20:45;6.53;80.47
78902;DHT22;70441;44.758;37.686;2024-03-17T02:22:02;6.52;80.65
78902;DHT22;70441;44.758;37.686;2024-03-17T02:23:04;6.50;80.62
78902;DHT22;70441;44.758;37.686;2024-03-17T02:24:08;6.52;80.67
78902;DHT22;70441;44.758;37.686;2024-03-17T02:25:09;6.54;80.67
78902;DHT22;70441;44.758;37.686;2024-03-17T02:26:10;6.54;80.63
78902;DHT22;70441;44.758;37.686;2024-03-17T02:27:12;6.53;80.69
78902;DHT22;70441;44.758;37.686;2024-03-17T02:28:14;6.57;80.70
78902;DHT22;70441;44.758;37.686;2024-03-17T02:29:15;6.54;80.55
78902;DHT22;70441;44.758;37.686;2024-03-17T02:30:17;6.54;80.58
78902;DHT22;70441;44.758;37.686;2024-03-17T02:31:18;6.53;80.58
78902;DHT22;70441;44.758;37.686;2024-03-17T02:32:20;6.52;80.68
78902;DHT22;70441;44.758;37.686;2024-03-17T02:33:23;6.52;80.63
78902;DHT22;70441;44.758;37.686;2024-03-17T02:34:25;6.54;80.66
78902;DHT22;70441;44.758;37.686;2024-03-17T02:35:26;6.53;80.70
78902;DHT22;70441;44.758;37.686;2024-03-17T02:36:27;6.53;80.54
78902;DHT22;70441;44.758;37.686;2024-03-17T02:37:29;6.54;80.80
78902;DHT22;70441;44.758;37.686;2024-03-17T02:38:30;6.56;80.66
78902;DHT22;70441;44.758;37.686;2024-03-17T02:39:50;6.54;80.50
78902;DHT22;70441;44.758;37.686;2024-03-17T02:40:51;6.53;80.62
78902;DHT22;70441;44.758;37.686;2024-03-17T02:41:53;6.56;80.64
78902;DHT22;70441;44.758;37.686;2024-03-17T02:42:54;6.53;80.68
78902;DHT22;70441;44.758;37.686;2024-03-17T02:43:56;6.54;80.76
78902;DHT22;70441;44.758;37.686;2024-03-17T02:44:57;6.56;80.81
78902;DHT22;70441;44.758;37.686;2024-03-17T02:45:58;6.56;80.67
78902;DHT22;70441;44.758;37.686;2024-03-17T02:47:00;6.54;80.61
78902;DHT22;70441;44.758;37.686;2024-03-17T02:48:04;6.53;80.57
78902;DHT22;70441;44.758;37.686;2024-03-17T02:49:07;6.53;80.59
78902;DHT22;70441;44.758;37.686;2024-03-17T02:50:09;6.54;80.53
78902;DHT22;70441;44.758;37.686;2024-03-17T02:51:11;6.52;80.55
78902;DHT22;70441;44.758;37.686;2024-03-17T02:52:15;6.50;80.67
78902;DHT22;70441;44.758;37.686;2024-03-17T02:53:17;6.54;80.75
78902;DHT22;70441;44.758;37.686;2024-03-17T02:54:18;6.52;80.72
78902;DHT22;70441;44.758;37.686;2024-03-17T02:55:19;6.52;80.77
78902;DHT22;70441;44.758;37.686;2024-03-17T02:56:21;6.56;80.71
78902;DHT22;70441;44.758;37.686;2024-03-17T02:57:23;6.56;80.67
78902;DHT22;70441;44.758;37.686;2024-03-17T02:58:30;6.59;80.54
78902;DHT22;70441;44.758;37.686;2024-03-17T02:59:32;6.56;80.51
78902;DHT22;70441;44.758;37.686;2024-03-17T03:00:33;6.54;80.51
78902;DHT22;70441;44.758;37.686;2024-03-17T03:01:35;6.54;80.46
78902;DHT22;70441;44.758;37.686;2024-03-17T03:02:36;6.57;80.43
78902;DHT22;70441;44.758;37.686;2024-03-17T03:03:37;6.56;80.26
78902;DHT22;70441;44.758;37.686;2024-03-17T03:04:39;6.56;80.25
78902;DHT22;70441;44.758;37.686;2024-03-17T03:05:40;6.56;80.23
78902;DHT22;70441;44.758;37.686;2024-03-17T03:06:42;6.57;80.15
78902;DHT22;70441;44.758;37.686;2024-03-17T03:07:43;6.57;80.13
78902;DHT22;70441;44.758;37.686;2024-03-17T03:08:45;6.56;80.06
78902;DHT22;70441;44.758;37.686;2024-03-17T03:09:51;6.54;80.03
78902;DHT22;70441;44.758;37.686;2024-03-17T03:10:52;6.57;79.93
78902;DHT22;70441;44.758;37.686;2024-03-17T03:11:53;6.59;79.93
78902;DHT22;70441;44.758;37.686;2024-03-17T03:12:55;6.59;79.76
78902;DHT22;70441;44.758;37.686;2024-03-17T03:13:56;6.59;79.59
78902;DHT22;70441;44.758;37.686;2024-03-17T03:14:58;6.62;79.58
78902;DHT22;70441;44.758;37.686;2024-03-17T03:15:59;6.57;79.52
78902;DHT22;70441;44.758;37.686;2024-03-17T03:17:01;6.57;79.46
78902;DHT22;70441;44.758;37.686;2024-03-17T03:18:02;6.60;79.41
78902;DHT22;70441;44.758;37.686;2024-03-17T03:19:03;6.60;79.44
78902;DHT22;70441;44.758;37.686;2024-03-17T03:20:06;6.63;79.21
78902;DHT22;70441;44.758;37.686;2024-03-17T03:21:08;6.59;79.22
78902;DHT22;70441;44.758;37.686;2024-03-17T03:22:09;6.60;79.18
78902;DHT22;70441;44.758;37.686;2024-03-17T03:23:10;6.63;79.18
78902;DHT22;70441;44.758;37.686;2024-03-17T03:24:15;6.60;79.17
78902;DHT22;70441;44.758;37.686;2024-03-17T03:25:16;6.62;79.16
78902;DHT22;70441;44.758;37.686;2024-03-17T03:26:18;6.60;79.13
78902;DHT22;70441;44.758;37.686;2024-03-17T03:27:19;6.60;79.02
78902;DHT22;70441;44.758;37.686;2024-03-17T03:28:21;6.60;79.00
78902;DHT22;70441;44.758;37.686;2024-03-17T03:29:22;6.63;79.05
78902;DHT22;70441;44.758;37.686;2024-03-17T03:30:26;6.69;78.87
78902;DHT22;70441;44.758;37.686;2024-03-17T03:31:28;6.62;78.72
78902;DHT22;70441;44.758;37.686;2024-03-17T03:32:29;6.63;78.75
78902;DHT22;70441;44.758;37.686;2024-03-17T03:33:30;6.60;78.79
78902;DHT22;70441;44.758;37.686;2024-03-17T03:34:33;6.62;78.83
78902;DHT22;70441;44.758;37.686;2024-03-17T03:35:34;6.60;78.82
78902;DHT22;70441;44.758;37.686;2024-03-17T03:36:37;6.57;78.84
78902;DHT22;70441;44.758;37.686;2024-03-17T03:37:38;6.62;78.71
78902;DHT22;70441;44.758;37.686;2024-03-17T03:38:40;6.59;78.71
78902;DHT22;70441;44.758;37.686;2024-03-17T03:39:41;6.59;78.65
78902;DHT22;70441;44.758;37.686;2024-03-17T03:40:43;6.60;78.68
78902;DHT22;70441;44.758;37.686;2024-03-17T03:41:44;6.63;78.62
78902;DHT22;70441;44.758;37.686;2024-03-17T03:42:46;6.64;78.55
78902;DHT22;70441;44.758;37.686;2024-03-17T03:43:48;6.64;78.44
78902;DHT22;70441;44.758;37.686;2024-03-17T03:44:49;6.63;78.35
78902;DHT22;70441;44.758;37.686;2024-03-17T03:45:50;6.64;78.31
78902;DHT22;70441;44.758;37.686;2024-03-17T03:46:52;6.62;78.28
78902;DHT22;70441;44.758;37.686;2024-03-17T03:47:57;6.64;78.28
78902;DHT22;70441;44.758;37.686;2024-03-17T03:48:58;6.64;78.19
78902;DHT22;70441;44.758;37.686;2024-03-17T03:50:00;6.64;78.14
78902;DHT22;70441;44.758;37.686;2024-03-17T03:51:07;6.66;78.20
78902;DHT22;70441;44.758;37.686;2024-03-17T03:52:10;6.67;78.12
78902;DHT22;70441;44.758;37.686;2024-03-17T03:53:11;6.70;78.06
78902;DHT22;70441;44.758;37.686;2024-03-17T03:54:13;6.73;77.99
78902;DHT22;70441;44.758;37.686;2024-03-17T03:55:16;6.74;77.91
78902;DHT22;70441;44.758;37.686;2024-03-17T03:56:18;6.70;77.88
78902;DHT22;70441;44.758;37.686;2024-03-17T03:57:21;6.73;77.88
78902;DHT22;70441;44.758;37.686;2024-03-17T03:58:23;6.77;77.79
78902;DHT22;70441;44.758;37.686;2024-03-17T03:59:24;6.79;77.73
78902;DHT22;70441;44.758;37.686;2024-03-17T04:00:26;6.76;77.69
78902;DHT22;70441;44.758;37.686;2024-03-17T04:01:30;6.83;77.58
78902;DHT22;70441;44.758;37.686;2024-03-17T04:02:32;6.81;77.50
78902;DHT22;70441;44.758;37.686;2024-03-17T04:03:35;6.83;77.53
78902;DHT22;70441;44.758;37.686;2024-03-17T04:04:37;6.85;77.47
78902;DHT22;70441;44.758;37.686;2024-03-17T04:05:38;6.88;77.32
78902;DHT22;70441;44.758;37.686;2024-03-17T04:06:40;6.92;77.25
78902;DHT22;70441;44.758;37.686;2024-03-17T04:07:41;6.92;77.27
78902;DHT22;70441;44.758;37.686;2024-03-17T04:08:43;6.94;77.21
78902;DHT22;70441;44.758;37.686;2024-03-17T04:09:45;6.95;77.17
78902;DHT22;70441;44.758;37.686;2024-03-17T04:10:46;6.95;77.10
78902;DHT22;70441;44.758;37.686;2024-03-17T04:11:48;7.01;77.07
78902;DHT22;70441;44.758;37.686;2024-03-17T04:12:51;7.01;77.02
78902;DHT22;70441;44.758;37.686;2024-03-17T04:13:52;7.07;76.76
78902;DHT22;70441;44.758;37.686;2024-03-17T04:14:54;7.08;76.64
78902;DHT22;70441;44.758;37.686;2024-03-17T04:15:56;7.12;76.67
78902;DHT22;70441;44.758;37.686;2024-03-17T04:16:58;7.15;76.67
78902;DHT22;70441;44.758;37.686;2024-03-17T04:17:59;7.15;76.57
78902;DHT22;70441;44.758;37.686;2024-03-17T04:19:01;7.20;76.43
78902;DHT22;70441;44.758;37.686;2024-03-17T04:20:03;7.22;76.29
78902;DHT22;70441;44.758;37.686;2024-03-17T04:21:06;7.25;76.19
78902;DHT22;70441;44.758;37.686;2024-03-17T04:22:08;7.29;76.14
78902;DHT22;70441;44.758;37.686;2024-03-17T04:23:09;7.33;75.98
78902;DHT22;70441;44.758;37.686;2024-03-17T04:24:10;7.36;75.83
78902;DHT22;70441;44.758;37.686;2024-03-17T04:25:12;7.42;75.77
78902;DHT22;70441;44.758;37.686;2024-03-17T04:26:14;7.43;75.70
78902;DHT22;70441;44.758;37.686;2024-03-17T04:27:15;7.44;75.52
78902;DHT22;70441;44.758;37.686;2024-03-17T04:28:17;7.50;75.35
78902;DHT22;70441;44.758;37.686;2024-03-17T04:29:18;7.54;75.36
78902;DHT22;70441;44.758;37.686;2024-03-17T04:30:21;7.58;75.10
78902;DHT22;70441;44.758;37.686;2024-03-17T04:31:23;7.63;74.97
78902;DHT22;70441;44.758;37.686;2024-03-17T04:32:25;7.67;74.93
78902;DHT22;70441;44.758;37.686;2024-03-17T04:33:30;7.71;74.69
78902;DHT22;70441;44.758;37.686;2024-03-17T04:34:32;7.75;74.83
78902;DHT22;70441;44.758;37.686;2024-03-17T04:35:36;7.75;74.75
78902;DHT22;70441;44.758;37.686;2024-03-17T04:36:38;7.79;74.57
78902;DHT22;70441;44.758;37.686;2024-03-17T04:37:39;7.84;74.46
78902;DHT22;70441;44.758;37.686;2024-03-17T04:38:41;7.88;74.27
78902;DHT22;70441;44.758;37.686;2024-03-17T04:39:43;7.93;74.10
78902;DHT22;70441;44.758;37.686;2024-03-17T04:40:45;7.95;73.90
78902;DHT22;70441;44.758;37.686;2024-03-17T04:41:47;7.99;73.80
78902;DHT22;70441;44.758;37.686;2024-03-17T04:42:49;8.05;73.83
78902;DHT22;70441;44.758;37.686;2024-03-17T04:43:50;8.10;73.83
78902;DHT22;70441;44.758;37.686;2024-03-17T04:44:51;8.16;73.63
78902;DHT22;70441;44.758;37.686;2024-03-17T04:46:03;8.22;73.25
78902;DHT22;70441;44.758;37.686;2024-03-17T04:47:06;8.23;73.05
78902;DHT22;70441;44.758;37.686;2024-03-17T04:48:08;8.30;72.83
78902;DHT22;70441;44.758;37.686;2024-03-17T04:49:10;8.34;72.57
78902;DHT22;70441;44.758;37.686;2024-03-17T04:50:11;8.38;72.35
78902;DHT22;70441;44.758;37.686;2024-03-17T04:51:16;8.45;72.66
78902;DHT22;70441;44.758;37.686;2024-03-17T04:52:18;8.51;72.25
78902;DHT22;70441;44.758;37.686;2024-03-17T04:53:19;8.55;72.51
78902;DHT22;70441;44.758;37.686;2024-03-17T04:54:21;8.65;72.42
78902;DHT22;70441;44.758;37.686;2024-03-17T04:55:22;8.73;72.42
78902;DHT22;70441;44.758;37.686;2024-03-17T04:56:24;8.80;72.16
78902;DHT22;70441;44.758;37.686;2024-03-17T04:57:25;8.83;71.47
78902;DHT22;70441;44.758;37.686;2024-03-17T04:58:27;8.90;71.45
78902;DHT22;70441;44.758;37.686;2024-03-17T04:59:28;8.97;71.64
78902;DHT22;70441;44.758;37.686;2024-03-17T05:00:30;9.06;71.28
78902;DHT22;70441;44.758;37.686;2024-03-17T05:01:32;9.11;70.80
78902;DHT22;70441;44.758;37.686;2024-03-17T05:02:37;9.14;69.97
78902;DHT22;70441;44.758;37.686;2024-03-17T05:03:38;9.17;70.53
78902;DHT22;70441;44.758;37.686;2024-03-17T05:04:40;9.23;70.68
78902;DHT22;70441;44.758;37.686;2024-03-17T05:05:43;9.31;69.99
78902;DHT22;70441;44.758;37.686;2024-03-17T05:06:44;9.42;70.30
78902;DHT22;70441;44.758;37.686;2024-03-17T05:07:50;9.53;70.03
78902;DHT22;70441;44.758;37.686;2024-03-17T05:08:51;9.68;70.09
78902;DHT22;70441;44.758;37.686;2024-03-17T05:09:53;9.83;69.55
78902;DHT22;70441;44.758;37.686;2024-03-17T05:11:05;9.94;69.35
78902;DHT22;70441;44.758;37.686;2024-03-17T05:12:06;10.04;68.41
78902;DHT22;70441;44.758;37.686;2024-03-17T05:13:08;10.12;68.04
78902;DHT22;70441;44.758;37.686;2024-03-17T05:14:09;10.17;67.81
78902;DHT22;70441;44.758;37.686;2024-03-17T05:15:10;10.27;67.09
78902;DHT22;70441;44.758;37.686;2024-03-17T05:16:12;10.36;67.53
78902;DHT22;70441;44.758;37.686;2024-03-17T05:17:13;10.45;66.69
78902;DHT22;70441;44.758;37.686;2024-03-17T05:18:14;10.44;66.69
78902;DHT22;70441;44.758;37.686;2024-03-17T05:19:16;10.49;66.37
78902;DHT22;70441;44.758;37.686;2024-03-17T05:20:18;10.48;66.77
78902;DHT22;70441;44.758;37.686;2024-03-17T05:21:19;10.42;66.49
78902;DHT22;70441;44.758;37.686;2024-03-17T05:22:21;10.45;66.39
78902;DHT22;70441;44.758;37.686;2024-03-17T05:23:22;10.44;65.66
78902;DHT22;70441;44.758;37.686;2024-03-17T05:24:24;10.44;66.09
78902;DHT22;70441;44.758;37.686;2024-03-17T05:25:25;10.42;66.26
78902;DHT22;70441;44.758;37.686;2024-03-17T05:26:26;10.42;65.91
78902;DHT22;70441;44.758;37.686;2024-03-17T05:27:28;10.50;66.12
78902;DHT22;70441;44.758;37.686;2024-03-17T05:28:29;10.57;66.41
78902;DHT22;70441;44.758;37.686;2024-03-17T05:29:31;10.64;65.77
78902;DHT22;70441;44.758;37.686;2024-03-17T05:30:35;10.70;66.23
78902;DHT22;70441;44.758;37.686;2024-03-17T05:31:37;10.77;66.29
78902;DHT22;70441;44.758;37.686;2024-03-17T05:32:42;10.91;65.27
78902;DHT22;70441;44.758;37.686;2024-03-17T05:33:46;10.95;65.08
78902;DHT22;70441;44.758;37.686;2024-03-17T05:34:47;10.95;64.73
78902;DHT22;70441;44.758;37.686;2024-03-17T05:35:55;11.03;64.72
78902;DHT22;70441;44.758;37.686;2024-03-17T05:36:56;11.05;64.63
78902;DHT22;70441;44.758;37.686;2024-03-17T05:37:58;11.16;64.97
78902;DHT22;70441;44.758;37.686;2024-03-17T05:38:59;11.40;64.06
78902;DHT22;70441;44.758;37.686;2024-03-17T05:40:01;11.60;63.41
78902;DHT22;70441;44.758;37.686;2024-03-17T05:41:05;11.52;61.92
78902;DHT22;70441;44.758;37.686;2024-03-17T05:42:07;11.49;62.49
78902;DHT22;70441;44.758;37.686;2024-03-17T05:43:08;11.53;62.71
78902;DHT22;70441;44.758;37.686;2024-03-17T05:44:09;11.47;62.54
78902;DHT22;70441;44.758;37.686;2024-03-17T05:45:11;11.52;62.34
78902;DHT22;70441;44.758;37.686;2024-03-17T05:46:12;11.70;63.56
78902;DHT22;70441;44.758;37.686;2024-03-17T05:47:17;11.99;62.91
78902;DHT22;70441;44.758;37.686;2024-03-17T05:48:19;12.23;60.85
78902;DHT22;70441;44.758;37.686;2024-03-17T05:49:21;12.39;60.62
78902;DHT22;70441;44.758;37.686;2024-03-17T05:50:22;12.60;59.24
78902;DHT22;70441;44.758;37.686;2024-03-17T05:51:24;12.74;59.45
78902;DHT22;70441;44.758;37.686;2024-03-17T05:52:28;12.88;58.45
78902;DHT22;70441;44.758;37.686;2024-03-17T05:53:30;12.88;58.83
78902;DHT22;70441;44.758;37.686;2024-03-17T05:54:33;12.98;58.44
78902;DHT22;70441;44.758;37.686;2024-03-17T05:55:37;13.13;58.15
78902;DHT22;70441;44.758;37.686;2024-03-17T05:56:39;13.26;57.36
78902;DHT22;70441;44.758;37.686;2024-03-17T05:57:40;13.28;56.81
78902;DHT22;70441;44.758;37.686;2024-03-17T05:58:42;13.39;56.30
78902;DHT22;70441;44.758;37.686;2024-03-17T05:59:44;13.47;56.37
78902;DHT22;70441;44.758;37.686;2024-03-17T06:00:45;13.54;56.37
78902;DHT22;70441;44.758;37.686;2024-03-17T06:01:47;13.62;55.88
78902;DHT22;70441;44.758;37.686;2024-03-17T06:02:48;13.72;55.40
78902;DHT22;70441;44.758;37.686;2024-03-17T06:03:49;13.81;55.29
78902;DHT22;70441;44.758;37.686;2024-03-17T06:04:51;13.73;54.69
78902;DHT22;70441;44.758;37.686;2024-03-17T06:05:53;13.51;55.73
78902;DHT22;70441;44.758;37.686;2024-03-17T06:06:54;13.57;55.24
78902;DHT22;70441;44.758;37.686;2024-03-17T06:07:56;13.66;55.39
78902;DHT22;70441;44.758;37.686;2024-03-17T06:08:57;13.82;55.51
78902;DHT22;70441;44.758;37.686;2024-03-17T06:09:59;13.95;55.42
78902;DHT22;70441;44.758;37.686;2024-03-17T06:11:00;14.10;55.03
78902;DHT22;70441;44.758;37.686;2024-03-17T06:12:01;14.25;54.88
78902;DHT22;70441;44.758;37.686;2024-03-17T06:13:04;14.32;53.83
78902;DHT22;70441;44.758;37.686;2024-03-17T06:14:05;14.37;53.42
78902;DHT22;70441;44.758;37.686;2024-03-17T06:15:11;14.48;54.09
78902;DHT22;70441;44.758;37.686;2024-03-17T06:16:13;14.62;53.95
78902;DHT22;70441;44.758;37.686;2024-03-17T06:17:14;14.75;53.15
78902;DHT22;70441;44.758;37.686;2024-03-17T06:18:15;14.80;52.20
78902;DHT22;70441;44.758;37.686;2024-03-17T06:19:18;14.84;51.87
78902;DHT22;70441;44.758;37.686;2024-03-17T06:20:22;14.90;51.85
78902;DHT22;70441;44.758;37.686;2024-03-17T06:21:25;14.96;52.04
78902;DHT22;70441;44.758;37.686;2024-03-17T06:22:26;15.07;52.09
78902;DHT22;70441;44.758;37.686;2024-03-17T06:23:27;15.17;51.85
78902;DHT22;70441;44.758;37.686;2024-03-17T06:24:29;15.25;51.44
78902;DHT22;70441;44.758;37.686;2024-03-17T06:25:30;15.36;51.11
78902;DHT22;70441;44.758;37.686;2024-03-17T06:26:32;15.42;50.95
78902;DHT22;70441;44.758;37.686;2024-03-17T06:27:36;15.53;51.55
78902;DHT22;70441;44.758;37.686;2024-03-17T06:28:39;15.63;50.90
78902;DHT22;70441;44.758;37.686;2024-03-17T06:29:40;15.67;50.70
78902;DHT22;70441;44.758;37.686;2024-03-17T06:30:54;15.71;50.70
78902;DHT22;70441;44.758;37.686;2024-03-17T06:31:57;15.77;49.73
78902;DHT22;70441;44.758;37.686;2024-03-17T06:32:58;15.73;49.58
78902;DHT22;70441;44.758;37.686;2024-03-17T06:34:00;15.71;51.17
78902;DHT22;70441;44.758;37.686;2024-03-17T06:35:01;15.79;50.46
78902;DHT22;70441;44.758;37.686;2024-03-17T06:36:04;15.80;50.16
78902;DHT22;70441;44.758;37.686;2024-03-17T06:37:06;15.91;50.75
78902;DHT22;70441;44.758;37.686;2024-03-17T06:38:07;16.02;49.77
78902;DHT22;70441;44.758;37.686;2024-03-17T06:39:11;16.05;50.06
78902;DHT22;70441;44.758;37.686;2024-03-17T06:40:17;16.02;49.09
78902;DHT22;70441;44.758;37.686;2024-03-17T06:41:18;15.96;49.28
78902;DHT22;70441;44.758;37.686;2024-03-17T06:42:20;15.94;49.25
78902;DHT22;70441;44.758;37.686;2024-03-17T06:43:21;15.90;49.42
78902;DHT22;70441;44.758;37.686;2024-03-17T06:44:23;15.83;48.66
78902;DHT22;70441;44.758;37.686;2024-03-17T06:45:28;15.71;49.04
78902;DHT22;70441;44.758;37.686;2024-03-17T06:46:29;15.63;48.85
78902;DHT22;70441;44.758;37.686;2024-03-17T06:47:31;15.60;49.46
78902;DHT22;70441;44.758;37.686;2024-03-17T06:48:32;15.56;49.83
78902;DHT22;70441;44.758;37.686;2024-03-17T06:49:34;15.56;50.23
78902;DHT22;70441;44.758;37.686;2024-03-17T06:50:38;15.52;50.19
78902;DHT22;70441;44.758;37.686;2024-03-17T06:51:43;15.46;49.87
78902;DHT22;70441;44.758;37.686;2024-03-17T06:52:45;15.34;49.72
78902;DHT22;70441;44.758;37.686;2024-03-17T06:53:46;15.27;49.87
78902;DHT22;70441;44.758;37.686;2024-03-17T06:54:48;15.27;50.35
78902;DHT22;70441;44.758;37.686;2024-03-17T06:55:56;15.32;50.80
78902;DHT22;70441;44.758;37.686;2024-03-17T06:56:58;15.32;49.87
78902;DHT22;70441;44.758;37.686;2024-03-17T06:57:59;15.35;50.10
78902;DHT22;70441;44.758;37.686;2024-03-17T06:59:01;15.42;50.44
78902;DHT22;70441;44.758;37.686;2024-03-17T07:00:03;15.53;51.23
78902;DHT22;70441;44.758;37.686;2024-03-17T07:01:08;15.60;50.27
78902;DHT22;70441;44.758;37.686;2024-03-17T07:02:10;15.63;49.91
78902;DHT22;70441;44.758;37.686;2024-03-17T07:03:13;15.71;50.18